sensor_id;sensor_type;location;lat;lon;timestamp;pressure;altitude;pressure_sealevel;temperature;humidity
76547;BME280;65390;53.014;8.886;2022-12-18T00:01:05;102902.09;;;-6.84;96.88
76547;BME280;65390;53.014;8.886;2022-12-18T00:03:35;102933.69;;;-6.99;96.96
76547;BME280;65390;53.014;8.886;2022-12-18T00:06:01;102970.19;;;-6.99;97.50
76547;BME280;65390;53.014;8.886;2022-12-18T00:08:27;102947.47;;;-7.02;97.78
76547;BME280;65390;53.014;8.886;2022-12-18T00:10:52;102936.66;;;-6.90;98.44
76547;BME280;65390;53.014;8.886;2022-12-18T00:13:18;102945.25;;;-6.70;98.26
76547;BME280;65390;53.014;8.886;2022-12-18T00:15:43;102949.06;;;-6.62;98.11
76547;BME280;65390;53.014;8.886;2022-12-18T00:18:09;102926.22;;;-6.67;98.49
76547;BME280;65390;53.014;8.886;2022-12-18T00:20:39;102956.69;;;-6.44;98.28
76547;BME280;65390;53.014;8.886;2022-12-18T00:23:05;102925.56;;;-6.84;97.79
76547;BME280;65390;53.014;8.886;2022-12-18T00:25:35;102928.16;;;-6.84;97.95
76547;BME280;65390;53.014;8.886;2022-12-18T00:28:03;102946.25;;;-6.66;98.01
76547;BME280;65390;53.014;8.886;2022-12-18T00:30:29;102969.91;;;-6.40;98.08
76547;BME280;65390;53.014;8.886;2022-12-18T00:32:55;102969.00;;;-6.40;97.57
76547;BME280;65390;53.014;8.886;2022-12-18T00:35:21;102937.91;;;-6.58;97.89
76547;BME280;65390;53.014;8.886;2022-12-18T00:37:47;102953.44;;;-6.61;97.45
76547;BME280;65390;53.014;8.886;2022-12-18T00:40:12;102968.97;;;-6.64;97.61
76547;BME280;65390;53.014;8.886;2022-12-18T00:42:38;102984.63;;;-6.64;98.13
76547;BME280;65390;53.014;8.886;2022-12-18T00:45:31;102915.06;;;-6.86;98.15
76547;BME280;65390;53.014;8.886;2022-12-18T00:47:58;102894.13;;;-6.89;97.98
76547;BME280;65390;53.014;8.886;2022-12-18T00:50:25;102904.31;;;-6.95;97.76
76547;BME280;65390;53.014;8.886;2022-12-18T00:52:51;102938.91;;;-6.99;98.14
76547;BME280;65390;53.014;8.886;2022-12-18T00:55:18;102925.53;;;-7.07;98.26
76547;BME280;65390;53.014;8.886;2022-12-18T00:57:45;102904.16;;;-7.20;98.63
76547;BME280;65390;53.014;8.886;2022-12-18T01:00:13;102963.53;;;-6.91;98.77
76547;BME280;65390;53.014;8.886;2022-12-18T01:02:41;102954.13;;;-6.87;98.84
76547;BME280;65390;53.014;8.886;2022-12-18T01:05:10;102940.31;;;-6.85;98.66
76547;BME280;65390;53.014;8.886;2022-12-18T01:07:37;102915.56;;;-6.96;98.63
76547;BME280;65390;53.014;8.886;2022-12-18T01:10:05;102957.00;;;-6.81;98.82
76547;BME280;65390;53.014;8.886;2022-12-18T01:12:31;102967.09;;;-6.89;99.14
76547;BME280;65390;53.014;8.886;2022-12-18T01:14:56;102982.97;;;-6.83;99.19
76547;BME280;65390;53.014;8.886;2022-12-18T01:17:23;102973.91;;;-6.92;99.13
76547;BME280;65390;53.014;8.886;2022-12-18T01:19:50;102932.34;;;-7.10;99.20
76547;BME280;65390;53.014;8.886;2022-12-18T01:22:16;102947.84;;;-6.92;99.30
76547;BME280;65390;53.014;8.886;2022-12-18T01:24:43;102986.50;;;-6.60;99.12
76547;BME280;65390;53.014;8.886;2022-12-18T01:27:10;102931.50;;;-6.88;98.71
76547;BME280;65390;53.014;8.886;2022-12-18T01:29:36;102917.22;;;-6.98;98.26
76547;BME280;65390;53.014;8.886;2022-12-18T01:32:03;102977.69;;;-6.63;98.18
76547;BME280;65390;53.014;8.886;2022-12-18T01:34:30;102982.94;;;-6.62;98.02
76547;BME280;65390;53.014;8.886;2022-12-18T01:36:57;102964.44;;;-6.68;97.82
76547;BME280;65390;53.014;8.886;2022-12-18T01:39:23;102964.03;;;-6.79;97.44
76547;BME280;65390;53.014;8.886;2022-12-18T01:41:50;102968.88;;;-6.65;97.96
76547;BME280;65390;53.014;8.886;2022-12-18T01:47:42;102980.13;;;-6.46;97.55
76547;BME280;65390;53.014;8.886;2022-12-18T01:50:23;102964.97;;;-6.54;97.13
76547;BME280;65390;53.014;8.886;2022-12-18T01:52:57;102958.38;;;-6.67;97.40
76547;BME280;65390;53.014;8.886;2022-12-18T01:55:28;102944.25;;;-6.74;97.42
76547;BME280;65390;53.014;8.886;2022-12-18T01:57:59;102999.47;;;-6.39;97.42
76547;BME280;65390;53.014;8.886;2022-12-18T02:00:27;103001.44;;;-6.33;97.49
76547;BME280;65390;53.014;8.886;2022-12-18T02:02:54;102968.59;;;-6.51;97.59
76547;BME280;65390;53.014;8.886;2022-12-18T02:08:16;102964.31;;;-6.71;97.76
76547;BME280;65390;53.014;8.886;2022-12-18T02:11:00;102980.91;;;-6.69;97.97
76547;BME280;65390;53.014;8.886;2022-12-18T02:16:37;102985.84;;;-6.77;98.53
76547;BME280;65390;53.014;8.886;2022-12-18T02:22:29;102976.34;;;-6.75;98.64
76547;BME280;65390;53.014;8.886;2022-12-18T02:28:04;102964.22;;;-6.74;98.56
76547;BME280;65390;53.014;8.886;2022-12-18T02:30:35;102948.44;;;-6.77;99.01
76547;BME280;65390;53.014;8.886;2022-12-18T02:33:05;102960.81;;;-6.72;98.49
76547;BME280;65390;53.014;8.886;2022-12-18T02:35:36;103002.16;;;-6.60;99.09
76547;BME280;65390;53.014;8.886;2022-12-18T02:38:06;102996.94;;;-6.60;99.20
76547;BME280;65390;53.014;8.886;2022-12-18T02:40:37;102973.81;;;-6.73;99.35
76547;BME280;65390;53.014;8.886;2022-12-18T02:43:15;102953.84;;;-6.73;99.28
76547;BME280;65390;53.014;8.886;2022-12-18T02:45:52;102950.28;;;-6.75;99.44
76547;BME280;65390;53.014;8.886;2022-12-18T02:48:29;102948.06;;;-6.86;99.25
76547;BME280;65390;53.014;8.886;2022-12-18T02:51:24;102991.41;;;-6.67;99.54
76547;BME280;65390;53.014;8.886;2022-12-18T02:54:03;102960.44;;;-7.03;99.70
76547;BME280;65390;53.014;8.886;2022-12-18T02:56:41;102992.50;;;-6.83;100.00
76547;BME280;65390;53.014;8.886;2022-12-18T02:59:21;102924.63;;;-7.29;99.84
76547;BME280;65390;53.014;8.886;2022-12-18T03:02:01;102968.00;;;-7.09;100.00
76547;BME280;65390;53.014;8.886;2022-12-18T03:04:43;102980.94;;;-6.90;100.00
76547;BME280;65390;53.014;8.886;2022-12-18T03:07:28;103004.78;;;-6.81;100.00
76547;BME280;65390;53.014;8.886;2022-12-18T03:10:00;102992.31;;;-6.88;100.00
76547;BME280;65390;53.014;8.886;2022-12-18T03:12:35;102966.53;;;-7.03;100.00
76547;BME280;65390;53.014;8.886;2022-12-18T03:17:33;102982.97;;;-6.83;100.00
76547;BME280;65390;53.014;8.886;2022-12-18T03:20:09;102948.28;;;-7.03;100.00
76547;BME280;65390;53.014;8.886;2022-12-18T03:22:37;102987.72;;;-6.73;100.00
76547;BME280;65390;53.014;8.886;2022-12-18T03:25:06;102980.63;;;-6.77;100.00
76547;BME280;65390;53.014;8.886;2022-12-18T03:27:36;102983.28;;;-6.75;100.00
76547;BME280;65390;53.014;8.886;2022-12-18T03:30:06;102990.22;;;-6.76;100.00
76547;BME280;65390;53.014;8.886;2022-12-18T03:32:42;102971.34;;;-6.91;100.00
76547;BME280;65390;53.014;8.886;2022-12-18T03:35:11;103010.19;;;-6.76;99.91
76547;BME280;65390;53.014;8.886;2022-12-18T03:37:38;102946.78;;;-7.18;99.82
76547;BME280;65390;53.014;8.886;2022-12-18T03:40:05;102965.84;;;-7.19;99.96
76547;BME280;65390;53.014;8.886;2022-12-18T03:42:48;102947.72;;;-7.37;100.00
76547;BME280;65390;53.014;8.886;2022-12-18T03:45:24;102971.38;;;-7.33;100.00
76547;BME280;65390;53.014;8.886;2022-12-18T03:53:19;102993.53;;;-7.42;100.00
76547;BME280;65390;53.014;8.886;2022-12-18T03:55:47;102960.88;;;-7.55;100.00
76547;BME280;65390;53.014;8.886;2022-12-18T03:58:17;102999.53;;;-7.24;100.00
76547;BME280;65390;53.014;8.886;2022-12-18T04:00:45;102926.47;;;-7.48;100.00
76547;BME280;65390;53.014;8.886;2022-12-18T04:03:13;102971.25;;;-7.15;100.00
76547;BME280;65390;53.014;8.886;2022-12-18T04:05:42;102964.72;;;-7.26;100.00
76547;BME280;65390;53.014;8.886;2022-12-18T04:08:08;102963.00;;;-7.25;100.00
76547;BME280;65390;53.014;8.886;2022-12-18T04:10:37;102974.69;;;-7.16;100.00
76547;BME280;65390;53.014;8.886;2022-12-18T04:13:02;102997.19;;;-6.97;100.00
76547;BME280;65390;53.014;8.886;2022-12-18T04:15:28;102969.91;;;-7.05;100.00
76547;BME280;65390;53.014;8.886;2022-12-18T04:17:53;102939.78;;;-7.19;99.93
76547;BME280;65390;53.014;8.886;2022-12-18T04:20:19;102943.28;;;-7.19;100.00
76547;BME280;65390;53.014;8.886;2022-12-18T04:22:44;102919.84;;;-7.40;100.00
76547;BME280;65390;53.014;8.886;2022-12-18T04:25:12;102972.69;;;-7.01;100.00
76547;BME280;65390;53.014;8.886;2022-12-18T04:27:38;102941.19;;;-7.07;99.74
76547;BME280;65390;53.014;8.886;2022-12-18T04:30:04;102935.09;;;-7.07;99.83
76547;BME280;65390;53.014;8.886;2022-12-18T04:32:29;102972.34;;;-6.87;99.81
76547;BME280;65390;53.014;8.886;2022-12-18T04:34:55;102988.06;;;-6.86;99.63
76547;BME280;65390;53.014;8.886;2022-12-18T04:37:20;102935.41;;;-7.20;99.30
76547;BME280;65390;53.014;8.886;2022-12-18T04:39:45;102955.69;;;-7.13;99.32
76547;BME280;65390;53.014;8.886;2022-12-18T04:42:11;102968.31;;;-7.02;99.23
76547;BME280;65390;53.014;8.886;2022-12-18T04:44:36;102946.22;;;-7.11;99.27
76547;BME280;65390;53.014;8.886;2022-12-18T04:47:02;102977.22;;;-6.96;98.79
76547;BME280;65390;53.014;8.886;2022-12-18T04:49:27;102962.19;;;-7.02;98.49
76547;BME280;65390;53.014;8.886;2022-12-18T04:51:52;102998.88;;;-6.77;98.60
76547;BME280;65390;53.014;8.886;2022-12-18T04:54:18;102968.41;;;-7.00;98.57
76547;BME280;65390;53.014;8.886;2022-12-18T04:56:45;102987.66;;;-6.96;98.33
76547;BME280;65390;53.014;8.886;2022-12-18T04:59:10;103000.56;;;-6.99;98.28
76547;BME280;65390;53.014;8.886;2022-12-18T05:01:36;102990.69;;;-7.07;98.17
76547;BME280;65390;53.014;8.886;2022-12-18T05:04:02;102971.38;;;-7.12;98.26
76547;BME280;65390;53.014;8.886;2022-12-18T05:06:27;103012.06;;;-6.94;98.14
76547;BME280;65390;53.014;8.886;2022-12-18T05:08:53;102967.13;;;-7.31;97.88
76547;BME280;65390;53.014;8.886;2022-12-18T05:11:18;102988.97;;;-7.27;98.15
76547;BME280;65390;53.014;8.886;2022-12-18T05:13:44;103025.91;;;-7.16;97.94
76547;BME280;65390;53.014;8.886;2022-12-18T05:16:10;103029.94;;;-7.23;98.33
76547;BME280;65390;53.014;8.886;2022-12-18T05:18:36;102992.28;;;-7.52;98.47
76547;BME280;65390;53.014;8.886;2022-12-18T05:21:02;103010.88;;;-7.43;98.99
76547;BME280;65390;53.014;8.886;2022-12-18T05:23:28;102992.69;;;-7.62;99.18
76547;BME280;65390;53.014;8.886;2022-12-18T05:25:55;103010.56;;;-7.50;99.18
76547;BME280;65390;53.014;8.886;2022-12-18T05:28:22;102997.25;;;-7.56;99.50
76547;BME280;65390;53.014;8.886;2022-12-18T05:30:49;103028.28;;;-7.42;99.71
76547;BME280;65390;53.014;8.886;2022-12-18T05:33:16;103006.03;;;-7.54;99.88
76547;BME280;65390;53.014;8.886;2022-12-18T05:35:41;103012.34;;;-7.49;99.44
76547;BME280;65390;53.014;8.886;2022-12-18T05:38:06;103000.50;;;-7.62;99.39
76547;BME280;65390;53.014;8.886;2022-12-18T05:40:32;102990.44;;;-7.74;99.58
76547;BME280;65390;53.014;8.886;2022-12-18T05:42:57;103006.94;;;-7.73;99.99
76547;BME280;65390;53.014;8.886;2022-12-18T05:45:22;103047.16;;;-7.47;99.88
76547;BME280;65390;53.014;8.886;2022-12-18T05:47:48;103002.56;;;-7.74;100.00
76547;BME280;65390;53.014;8.886;2022-12-18T05:50:13;103006.41;;;-7.66;100.00
76547;BME280;65390;53.014;8.886;2022-12-18T05:52:39;102980.84;;;-7.75;100.00
76547;BME280;65390;53.014;8.886;2022-12-18T05:55:04;103002.53;;;-7.55;100.00
76547;BME280;65390;53.014;8.886;2022-12-18T05:57:30;103044.25;;;-7.34;100.00
76547;BME280;65390;53.014;8.886;2022-12-18T05:59:55;103009.53;;;-7.54;100.00
76547;BME280;65390;53.014;8.886;2022-12-18T06:02:21;103009.81;;;-7.67;100.00
76547;BME280;65390;53.014;8.886;2022-12-18T06:04:46;102974.06;;;-7.91;100.00
76547;BME280;65390;53.014;8.886;2022-12-18T06:07:12;103021.19;;;-7.65;99.87
76547;BME280;65390;53.014;8.886;2022-12-18T06:09:37;102991.81;;;-7.82;100.00
76547;BME280;65390;53.014;8.886;2022-12-18T06:12:03;102978.63;;;-7.86;99.98
76547;BME280;65390;53.014;8.886;2022-12-18T06:14:28;103038.72;;;-7.61;99.93
76547;BME280;65390;53.014;8.886;2022-12-18T06:16:54;103014.84;;;-7.72;100.00
76547;BME280;65390;53.014;8.886;2022-12-18T06:19:19;103017.34;;;-7.73;100.00
76547;BME280;65390;53.014;8.886;2022-12-18T06:21:45;103032.31;;;-7.69;100.00
76547;BME280;65390;53.014;8.886;2022-12-18T06:24:10;103033.63;;;-7.58;100.00
76547;BME280;65390;53.014;8.886;2022-12-18T06:26:38;103021.44;;;-7.59;100.00
76547;BME280;65390;53.014;8.886;2022-12-18T06:29:04;102982.63;;;-7.74;100.00
76547;BME280;65390;53.014;8.886;2022-12-18T06:31:30;102994.97;;;-7.70;100.00
76547;BME280;65390;53.014;8.886;2022-12-18T06:33:55;103042.38;;;-7.37;100.00
76547;BME280;65390;53.014;8.886;2022-12-18T06:36:21;103022.91;;;-7.66;99.46
76547;BME280;65390;53.014;8.886;2022-12-18T06:38:46;103009.09;;;-7.84;99.42
76547;BME280;65390;53.014;8.886;2022-12-18T06:41:17;102981.88;;;-8.10;99.20
76547;BME280;65390;53.014;8.886;2022-12-18T06:43:44;103016.88;;;-7.84;99.59
76547;BME280;65390;53.014;8.886;2022-12-18T06:46:12;103052.81;;;-7.56;100.00
76547;BME280;65390;53.014;8.886;2022-12-18T06:48:42;103025.44;;;-7.86;99.65
76547;BME280;65390;53.014;8.886;2022-12-18T06:51:08;103032.06;;;-7.93;99.82
76547;BME280;65390;53.014;8.886;2022-12-18T06:53:36;103019.69;;;-7.99;100.00
76547;BME280;65390;53.014;8.886;2022-12-18T06:56:03;103066.06;;;-7.71;100.00
76547;BME280;65390;53.014;8.886;2022-12-18T06:58:28;102998.81;;;-8.00;100.00
76547;BME280;65390;53.014;8.886;2022-12-18T07:01:05;103062.41;;;-7.55;100.00
76547;BME280;65390;53.014;8.886;2022-12-18T07:03:32;103031.13;;;-7.76;100.00
76547;BME280;65390;53.014;8.886;2022-12-18T07:05:59;103057.00;;;-7.59;100.00
76547;BME280;65390;53.014;8.886;2022-12-18T07:08:26;103017.66;;;-7.86;100.00
76547;BME280;65390;53.014;8.886;2022-12-18T07:10:52;103025.03;;;-7.96;99.92
76547;BME280;65390;53.014;8.886;2022-12-18T07:13:23;103040.19;;;-7.87;100.00
76547;BME280;65390;53.014;8.886;2022-12-18T07:15:55;103017.91;;;-8.00;99.72
76547;BME280;65390;53.014;8.886;2022-12-18T07:18:44;103019.69;;;-7.99;99.99
76547;BME280;65390;53.014;8.886;2022-12-18T07:21:16;103076.31;;;-7.74;100.00
76547;BME280;65390;53.014;8.886;2022-12-18T07:23:46;103075.66;;;-7.70;100.00
76547;BME280;65390;53.014;8.886;2022-12-18T07:26:20;103072.69;;;-7.77;100.00
76547;BME280;65390;53.014;8.886;2022-12-18T07:28:55;103077.06;;;-7.76;100.00
76547;BME280;65390;53.014;8.886;2022-12-18T07:31:28;103033.72;;;-7.95;100.00
76547;BME280;65390;53.014;8.886;2022-12-18T07:33:54;103025.72;;;-8.00;100.00
76547;BME280;65390;53.014;8.886;2022-12-18T07:36:23;103064.63;;;-7.83;100.00
76547;BME280;65390;53.014;8.886;2022-12-18T07:38:50;103066.13;;;-7.88;100.00
76547;BME280;65390;53.014;8.886;2022-12-18T07:41:19;103099.16;;;-7.68;100.00
76547;BME280;65390;53.014;8.886;2022-12-18T07:44:12;103049.88;;;-8.02;100.00
76547;BME280;65390;53.014;8.886;2022-12-18T07:46:39;103019.88;;;-8.13;100.00
76547;BME280;65390;53.014;8.886;2022-12-18T07:49:05;103041.53;;;-7.95;100.00
76547;BME280;65390;53.014;8.886;2022-12-18T07:51:32;103058.72;;;-7.79;100.00
76547;BME280;65390;53.014;8.886;2022-12-18T07:53:58;103034.69;;;-7.93;100.00
76547;BME280;65390;53.014;8.886;2022-12-18T07:56:28;103076.50;;;-7.71;100.00
76547;BME280;65390;53.014;8.886;2022-12-18T07:58:54;103029.91;;;-8.03;100.00
76547;BME280;65390;53.014;8.886;2022-12-18T08:01:22;103046.72;;;-7.95;100.00
76547;BME280;65390;53.014;8.886;2022-12-18T08:03:53;103030.78;;;-8.03;100.00
76547;BME280;65390;53.014;8.886;2022-12-18T08:06:23;103037.91;;;-7.99;100.00
76547;BME280;65390;53.014;8.886;2022-12-18T08:08:54;103070.16;;;-7.76;100.00
76547;BME280;65390;53.014;8.886;2022-12-18T08:11:22;103062.47;;;-7.73;100.00
76547;BME280;65390;53.014;8.886;2022-12-18T08:13:49;103063.31;;;-7.74;100.00
76547;BME280;65390;53.014;8.886;2022-12-18T08:16:16;103048.06;;;-7.85;100.00
76547;BME280;65390;53.014;8.886;2022-12-18T08:18:43;102993.72;;;-8.16;100.00
76547;BME280;65390;53.014;8.886;2022-12-18T08:21:12;102991.00;;;-8.19;100.00
76547;BME280;65390;53.014;8.886;2022-12-18T08:23:49;103059.88;;;-7.73;100.00
76547;BME280;65390;53.014;8.886;2022-12-18T08:26:16;103001.28;;;-8.03;100.00
76547;BME280;65390;53.014;8.886;2022-12-18T08:28:43;103029.22;;;-7.80;100.00
76547;BME280;65390;53.014;8.886;2022-12-18T08:31:08;103046.47;;;-7.63;100.00
76547;BME280;65390;53.014;8.886;2022-12-18T08:33:35;103018.47;;;-7.68;100.00
76547;BME280;65390;53.014;8.886;2022-12-18T08:36:03;103044.72;;;-7.43;100.00
76547;BME280;65390;53.014;8.886;2022-12-18T08:38:33;103063.22;;;-7.37;100.00
76547;BME280;65390;53.014;8.886;2022-12-18T08:41:07;103045.53;;;-7.04;100.00
76547;BME280;65390;53.014;8.886;2022-12-18T08:43:37;103078.75;;;-6.79;100.00
76547;BME280;65390;53.014;8.886;2022-12-18T08:46:26;103044.03;;;-6.98;100.00
76547;BME280;65390;53.014;8.886;2022-12-18T08:48:56;103013.00;;;-7.13;100.00
76547;BME280;65390;53.014;8.886;2022-12-18T08:51:23;102990.69;;;-7.07;100.00
76547;BME280;65390;53.014;8.886;2022-12-18T08:53:48;102996.59;;;-6.90;100.00
76547;BME280;65390;53.014;8.886;2022-12-18T08:56:14;102988.28;;;-6.81;100.00
76547;BME280;65390;53.014;8.886;2022-12-18T08:58:40;103000.09;;;-6.46;100.00
76547;BME280;65390;53.014;8.886;2022-12-18T09:01:10;102989.59;;;-6.25;100.00
76547;BME280;65390;53.014;8.886;2022-12-18T09:03:43;103035.91;;;-5.72;100.00
76547;BME280;65390;53.014;8.886;2022-12-18T09:06:13;102988.13;;;-5.93;100.00
76547;BME280;65390;53.014;8.886;2022-12-18T09:08:42;102958.69;;;-5.89;100.00
76547;BME280;65390;53.014;8.886;2022-12-18T09:11:17;102974.78;;;-5.77;100.00
76547;BME280;65390;53.014;8.886;2022-12-18T09:13:43;102998.09;;;-5.58;100.00
76547;BME280;65390;53.014;8.886;2022-12-18T09:16:14;103025.25;;;-5.54;100.00
76547;BME280;65390;53.014;8.886;2022-12-18T09:18:42;103016.47;;;-5.56;100.00
76547;BME280;65390;53.014;8.886;2022-12-18T09:21:12;102988.38;;;-5.62;100.00
76547;BME280;65390;53.014;8.886;2022-12-18T09:23:38;102977.44;;;-5.52;100.00
76547;BME280;65390;53.014;8.886;2022-12-18T09:26:03;103016.41;;;-5.07;100.00
76547;BME280;65390;53.014;8.886;2022-12-18T09:28:31;102989.94;;;-5.18;100.00
76547;BME280;65390;53.014;8.886;2022-12-18T09:30:57;103005.66;;;-5.16;100.00
76547;BME280;65390;53.014;8.886;2022-12-18T09:33:22;103027.13;;;-4.99;100.00
76547;BME280;65390;53.014;8.886;2022-12-18T09:35:47;103033.75;;;-4.83;100.00
76547;BME280;65390;53.014;8.886;2022-12-18T09:38:16;103027.56;;;-4.86;100.00
76547;BME280;65390;53.014;8.886;2022-12-18T09:40:45;102985.72;;;-5.12;99.94
76547;BME280;65390;53.014;8.886;2022-12-18T09:43:19;103023.72;;;-4.97;99.81
76547;BME280;65390;53.014;8.886;2022-12-18T09:45:49;103007.81;;;-5.03;99.89
76547;BME280;65390;53.014;8.886;2022-12-18T09:48:29;103021.25;;;-4.92;99.38
76547;BME280;65390;53.014;8.886;2022-12-18T09:51:02;103010.75;;;-4.94;99.56
76547;BME280;65390;53.014;8.886;2022-12-18T09:53:31;103067.72;;;-4.58;99.49
76547;BME280;65390;53.014;8.886;2022-12-18T09:56:01;103055.34;;;-4.64;99.21
76547;BME280;65390;53.014;8.886;2022-12-18T09:58:42;103013.78;;;-4.81;99.34
76547;BME280;65390;53.014;8.886;2022-12-18T10:01:18;103042.25;;;-4.64;99.16
76547;BME280;65390;53.014;8.886;2022-12-18T10:03:45;103044.09;;;-4.61;99.16
76547;BME280;65390;53.014;8.886;2022-12-18T10:09:34;103020.00;;;-4.78;99.01
76547;BME280;65390;53.014;8.886;2022-12-18T10:12:07;103049.94;;;-4.68;99.06
76547;BME280;65390;53.014;8.886;2022-12-18T10:17:45;103071.75;;;-4.68;99.70
76547;BME280;65390;53.014;8.886;2022-12-18T10:22:53;103041.00;;;-4.75;99.59
76547;BME280;65390;53.014;8.886;2022-12-18T10:25:26;103004.03;;;-4.86;100.00
76547;BME280;65390;53.014;8.886;2022-12-18T10:27:58;103020.13;;;-4.73;100.00
76547;BME280;65390;53.014;8.886;2022-12-18T10:30:25;103018.84;;;-4.59;100.00
76547;BME280;65390;53.014;8.886;2022-12-18T10:32:51;103000.03;;;-4.47;99.90
76547;BME280;65390;53.014;8.886;2022-12-18T10:35:23;103009.09;;;-4.36;100.00
76547;BME280;65390;53.014;8.886;2022-12-18T10:43:38;102988.63;;;-4.49;99.60
76547;BME280;65390;53.014;8.886;2022-12-18T10:46:12;103006.13;;;-4.48;99.43
76547;BME280;65390;53.014;8.886;2022-12-18T10:48:53;103002.44;;;-4.53;100.00
76547;BME280;65390;53.014;8.886;2022-12-18T10:51:27;102995.66;;;-4.48;100.00
76547;BME280;65390;53.014;8.886;2022-12-18T10:54:17;102990.41;;;-4.48;100.00
76547;BME280;65390;53.014;8.886;2022-12-18T10:56:46;102971.97;;;-4.51;100.00
76547;BME280;65390;53.014;8.886;2022-12-18T10:59:15;103012.72;;;-4.31;100.00
76547;BME280;65390;53.014;8.886;2022-12-18T11:01:53;103014.88;;;-4.18;100.00
76547;BME280;65390;53.014;8.886;2022-12-18T11:07:08;102957.16;;;-4.22;100.00
76547;BME280;65390;53.014;8.886;2022-12-18T11:09:38;102953.38;;;-4.02;100.00
76547;BME280;65390;53.014;8.886;2022-12-18T11:12:21;102988.56;;;-3.61;100.00
76547;BME280;65390;53.014;8.886;2022-12-18T11:14:52;102948.69;;;-3.82;100.00
76547;BME280;65390;53.014;8.886;2022-12-18T11:17:30;102957.72;;;-3.73;100.00
76547;BME280;65390;53.014;8.886;2022-12-18T11:23:15;102973.47;;;-3.38;100.00
76547;BME280;65390;53.014;8.886;2022-12-18T11:26:05;102961.41;;;-3.31;100.00
76547;BME280;65390;53.014;8.886;2022-12-18T11:28:46;102917.63;;;-3.36;100.00
76547;BME280;65390;53.014;8.886;2022-12-18T11:36:33;102909.94;;;-3.28;100.00
76547;BME280;65390;53.014;8.886;2022-12-18T11:39:12;102947.00;;;-3.14;100.00
76547;BME280;65390;53.014;8.886;2022-12-18T11:41:49;102950.84;;;-3.00;100.00
76547;BME280;65390;53.014;8.886;2022-12-18T11:48:03;102881.78;;;-2.99;100.00
76547;BME280;65390;53.014;8.886;2022-12-18T11:50:58;102902.69;;;-2.64;100.00
76547;BME280;65390;53.014;8.886;2022-12-18T11:53:27;102900.41;;;-2.49;100.00
76547;BME280;65390;53.014;8.886;2022-12-18T12:01:45;102881.25;;;-2.44;99.79
76547;BME280;65390;53.014;8.886;2022-12-18T12:04:50;102897.81;;;-2.48;99.86
76547;BME280;65390;53.014;8.886;2022-12-18T12:22:22;102876.47;;;-2.21;99.32
76547;BME280;65390;53.014;8.886;2022-12-18T12:28:03;102869.44;;;-2.22;99.51
76547;BME280;65390;53.014;8.886;2022-12-18T12:30:55;102840.75;;;-2.55;99.37
76547;BME280;65390;53.014;8.886;2022-12-18T12:39:30;102867.47;;;-2.33;99.51
76547;BME280;65390;53.014;8.886;2022-12-18T12:42:02;102833.06;;;-2.47;99.40
76547;BME280;65390;53.014;8.886;2022-12-18T12:44:55;102820.03;;;-2.41;99.64
76547;BME280;65390;53.014;8.886;2022-12-18T12:47:38;102811.31;;;-2.40;99.57
76547;BME280;65390;53.014;8.886;2022-12-18T12:50:19;102801.78;;;-2.35;99.55
76547;BME280;65390;53.014;8.886;2022-12-18T12:52:57;102778.50;;;-2.62;99.26
76547;BME280;65390;53.014;8.886;2022-12-18T12:55:30;102840.59;;;-2.20;99.54
76547;BME280;65390;53.014;8.886;2022-12-18T13:00:39;102841.38;;;-2.24;99.87
76547;BME280;65390;53.014;8.886;2022-12-18T13:03:29;102790.00;;;-2.55;99.21
76547;BME280;65390;53.014;8.886;2022-12-18T13:06:12;102817.19;;;-2.52;99.37
76547;BME280;65390;53.014;8.886;2022-12-18T13:08:58;102828.69;;;-2.47;99.52
76547;BME280;65390;53.014;8.886;2022-12-18T13:14:36;102824.16;;;-2.54;99.93
76547;BME280;65390;53.014;8.886;2022-12-18T13:19:51;102798.75;;;-2.56;100.00
76547;BME280;65390;53.014;8.886;2022-12-18T13:22:24;102791.06;;;-2.47;99.87
76547;BME280;65390;53.014;8.886;2022-12-18T13:24:55;102808.88;;;-2.31;100.00
76547;BME280;65390;53.014;8.886;2022-12-18T13:38:33;102798.78;;;-2.53;100.00
76547;BME280;65390;53.014;8.886;2022-12-18T13:41:21;102774.97;;;-2.64;100.00
76547;BME280;65390;53.014;8.886;2022-12-18T13:43:49;102784.75;;;-2.55;100.00
76547;BME280;65390;53.014;8.886;2022-12-18T13:46:46;102782.06;;;-2.60;100.00
76547;BME280;65390;53.014;8.886;2022-12-18T13:49:51;102798.06;;;-2.46;100.00
76547;BME280;65390;53.014;8.886;2022-12-18T13:52:26;102792.91;;;-2.41;100.00
76547;BME280;65390;53.014;8.886;2022-12-18T13:55:01;102747.06;;;-2.60;100.00
76547;BME280;65390;53.014;8.886;2022-12-18T13:57:37;102740.31;;;-2.48;100.00
76547;BME280;65390;53.014;8.886;2022-12-18T14:00:44;102721.13;;;-2.44;100.00
76547;BME280;65390;53.014;8.886;2022-12-18T14:03:25;102724.84;;;-2.32;100.00
76547;BME280;65390;53.014;8.886;2022-12-18T14:05:56;102762.69;;;-2.18;100.00
76547;BME280;65390;53.014;8.886;2022-12-18T14:08:29;102738.84;;;-2.32;100.00
76547;BME280;65390;53.014;8.886;2022-12-18T14:10:59;102710.56;;;-2.47;100.00
76547;BME280;65390;53.014;8.886;2022-12-18T14:13:41;102759.13;;;-2.23;100.00
76547;BME280;65390;53.014;8.886;2022-12-18T14:16:14;102701.53;;;-2.62;100.00
76547;BME280;65390;53.014;8.886;2022-12-18T14:18:57;102738.00;;;-2.31;100.00
76547;BME280;65390;53.014;8.886;2022-12-18T14:21:29;102727.47;;;-2.32;100.00
76547;BME280;65390;53.014;8.886;2022-12-18T14:24:20;102747.22;;;-2.03;100.00
76547;BME280;65390;53.014;8.886;2022-12-18T14:26:53;102708.34;;;-2.24;99.99
76547;BME280;65390;53.014;8.886;2022-12-18T14:29:30;102668.66;;;-2.40;99.89
76547;BME280;65390;53.014;8.886;2022-12-18T14:32:16;102718.19;;;-2.12;99.49
76547;BME280;65390;53.014;8.886;2022-12-18T14:34:53;102708.38;;;-2.21;99.35
76547;BME280;65390;53.014;8.886;2022-12-18T14:37:24;102735.88;;;-1.99;99.17
76547;BME280;65390;53.014;8.886;2022-12-18T14:39:59;102698.75;;;-2.22;99.15
76547;BME280;65390;53.014;8.886;2022-12-18T14:42:26;102690.78;;;-2.28;99.18
76547;BME280;65390;53.014;8.886;2022-12-18T14:51:02;102710.00;;;-2.29;99.25
76547;BME280;65390;53.014;8.886;2022-12-18T14:56:25;102682.44;;;-2.52;98.95